createdAt,value
2018-07-23T00:00:23.810Z,7.50
2018-07-23T00:01:23.848Z,8.60
2018-07-23T00:02:23.825Z,9.40
2018-07-23T00:03:23.874Z,8.50
2018-07-23T00:04:23.873Z,7.50
2018-07-23T00:05:23.841Z,9.20
2018-07-23T00:06:23.854Z,8.10
2018-07-23T00:07:23.857Z,7.40
2018-07-23T00:08:24.570Z,8.90
2018-07-23T00:09:23.863Z,8.30
2018-07-23T00:10:23.869Z,8.50
2018-07-23T00:11:23.884Z,8.40
2018-07-23T00:12:23.880Z,7.80
2018-07-23T00:13:23.893Z,7.70
2018-07-23T00:14:23.901Z,7.70
2018-07-23T00:15:23.900Z,8.10
2018-07-23T00:16:23.909Z,8.40
2018-07-23T00:17:23.916Z,9.40
2018-07-23T00:18:23.922Z,8.20
2018-07-23T00:19:23.927Z,7.50
2018-07-23T00:20:23.944Z,8.00
2018-07-23T00:21:23.934Z,8.50
2018-07-23T00:22:23.951Z,8.20
2018-07-23T00:23:23.952Z,8.30
2018-07-23T00:24:23.955Z,8.10
2018-07-23T00:25:23.963Z,9.30
2018-07-23T00:26:23.970Z,7.40
2018-07-23T00:27:23.977Z,10.70
2018-07-23T00:28:23.984Z,8.90
2018-07-23T00:29:23.984Z,9.50
2018-07-23T00:30:23.995Z,8.50
2018-07-23T00:31:23.996Z,8.20
2018-07-23T00:32:24.001Z,9.00
2018-07-23T00:33:24.011Z,8.40
2018-07-23T00:34:24.021Z,8.60
2018-07-23T00:35:24.020Z,6.90
2018-07-23T00:36:24.026Z,9.60
2018-07-23T00:37:24.036Z,11.20
2018-07-23T00:38:24.044Z,7.90
2018-07-23T00:39:24.051Z,9.00
2018-07-23T00:40:24.053Z,8.60
2018-07-23T00:41:24.062Z,7.50
2018-07-23T00:42:24.067Z,8.30
2018-07-23T00:43:24.078Z,7.70
2018-07-23T00:44:24.079Z,9.60
2018-07-23T00:45:24.076Z,7.30
2018-07-23T00:46:24.098Z,7.60
2018-07-23T00:47:24.090Z,8.50
2018-07-23T00:48:24.098Z,11.10
2018-07-23T00:49:24.110Z,8.20
2018-07-23T00:50:24.111Z,9.30
2018-07-23T00:51:24.121Z,9.30
2018-07-23T00:52:24.118Z,9.90
2018-07-23T00:53:24.133Z,7.50
2018-07-23T00:54:24.133Z,13.00
2018-07-23T00:55:24.148Z,8.10
2018-07-23T00:56:24.144Z,10.00
2018-07-23T00:57:24.151Z,8.50
2018-07-23T00:58:24.156Z,9.00
2018-07-23T00:59:24.163Z,9.30
2018-07-23T01:00:24.168Z,8.20
2018-07-23T01:01:24.183Z,9.40
2018-07-23T01:02:24.185Z,10.30
2018-07-23T01:03:24.186Z,8.80
2018-07-23T01:04:25.084Z,8.60
2018-07-23T01:05:24.231Z,8.80
2018-07-23T01:06:24.207Z,10.10
2018-07-23T01:07:24.211Z,9.50
2018-07-23T01:08:24.222Z,10.90
2018-07-23T01:09:24.223Z,9.70
2018-07-23T01:10:24.235Z,11.90
2018-07-23T01:11:24.233Z,9.70
2018-07-23T01:12:24.246Z,9.40
2018-07-23T01:13:24.248Z,10.30
2018-07-23T01:14:24.257Z,11.50
2018-07-23T01:15:24.265Z,9.80
2018-07-23T01:16:24.269Z,10.10
2018-07-23T01:17:24.268Z,8.80
2018-07-23T01:18:24.277Z,11.60
2018-07-23T01:19:24.284Z,9.80
2018-07-23T01:20:24.288Z,11.20
2018-07-23T01:21:24.298Z,10.40
2018-07-23T01:22:24.289Z,10.70
2018-07-23T01:23:24.306Z,11.20
2018-07-23T01:24:24.417Z,11.10
2018-07-23T01:25:24.338Z,11.70
2018-07-23T01:26:24.316Z,11.80
2018-07-23T01:27:24.322Z,12.40
2018-07-23T01:28:24.329Z,13.90
2018-07-23T01:29:24.336Z,12.20
2018-07-23T01:30:24.332Z,12.40
2018-07-23T01:31:24.345Z,12.20
2018-07-23T01:32:24.353Z,11.30
2018-07-23T01:33:24.356Z,10.90
2018-07-23T01:34:24.360Z,11.20
2018-07-23T01:35:24.369Z,10.50
2018-07-23T01:36:24.377Z,9.70
2018-07-23T01:37:24.373Z,11.10
2018-07-23T01:38:24.379Z,13.70
2018-07-23T01:39:24.392Z,12.60
2018-07-23T01:40:24.393Z,11.20
2018-07-23T01:41:24.401Z,11.90
2018-07-23T01:42:25.104Z,11.10
2018-07-23T01:43:24.403Z,12.60
2018-07-23T01:44:24.418Z,12.20
2018-07-23T01:45:24.417Z,10.40
2018-07-23T01:46:24.424Z,11.80
2018-07-23T01:47:24.433Z,11.90
2018-07-23T01:48:24.438Z,11.60
2018-07-23T01:49:24.449Z,10.60
2018-07-23T01:50:24.445Z,12.60
2018-07-23T01:51:24.459Z,12.20
2018-07-23T01:52:24.462Z,11.20
2018-07-23T01:53:24.468Z,10.70
2018-07-23T01:54:24.472Z,11.40
2018-07-23T01:55:24.480Z,11.60
2018-07-23T01:56:24.489Z,10.90
2018-07-23T01:57:24.495Z,12.70
2018-07-23T01:58:24.501Z,10.90
2018-07-23T01:59:24.503Z,11.60
2018-07-23T02:00:24.509Z,12.30
2018-07-23T02:01:24.519Z,13.00
2018-07-23T02:02:24.521Z,13.80
2018-07-23T02:03:24.528Z,14.00
2018-07-23T02:04:24.536Z,12.80
2018-07-23T02:05:24.532Z,12.70
2018-07-23T02:06:24.539Z,12.10
2018-07-23T02:07:24.556Z,14.20
2018-07-23T02:08:24.552Z,13.10
2018-07-23T02:09:24.557Z,13.20
2018-07-23T02:10:24.564Z,12.10
2018-07-23T02:11:24.567Z,12.80
2018-07-23T02:12:24.581Z,13.40
2018-07-23T02:13:24.579Z,14.30
2018-07-23T02:14:24.593Z,15.40
2018-07-23T02:15:24.587Z,12.70
2018-07-23T02:16:24.601Z,15.50
2018-07-23T02:17:24.601Z,13.10
2018-07-23T02:18:24.609Z,11.80
2018-07-23T02:19:24.613Z,13.20
2018-07-23T02:20:24.616Z,13.40
2018-07-23T02:21:24.627Z,15.10
2018-07-23T02:22:24.637Z,13.30
2018-07-23T02:23:24.638Z,15.30
2018-07-23T02:24:24.643Z,13.90
2018-07-23T02:25:24.656Z,12.80
2018-07-23T02:26:24.664Z,13.40
2018-07-23T02:27:24.670Z,12.50
2018-07-23T02:28:24.670Z,13.30
2018-07-23T02:29:24.671Z,12.80
2018-07-23T02:30:24.680Z,12.30
2018-07-23T02:31:24.691Z,12.70
2018-07-23T02:32:24.688Z,14.00
2018-07-23T02:33:24.704Z,13.80
2018-07-23T02:34:24.709Z,13.40
2018-07-23T02:35:24.717Z,13.10
2018-07-23T02:36:24.718Z,12.90
2018-07-23T02:37:24.721Z,14.40
2018-07-23T02:38:25.619Z,13.30
2018-07-23T02:39:24.733Z,13.70
2018-07-23T02:40:24.735Z,16.60
2018-07-23T02:41:24.738Z,13.70
2018-07-23T02:42:24.740Z,15.40
2018-07-23T02:43:24.754Z,18.20
2018-07-23T02:44:24.763Z,16.40
2018-07-23T02:45:24.764Z,17.20
2018-07-23T02:46:24.775Z,18.40
2018-07-23T02:47:24.773Z,17.70
2018-07-23T02:48:24.784Z,19.70
2018-07-23T02:49:24.779Z,15.60
2018-07-23T02:50:24.791Z,17.50
2018-07-23T02:51:24.798Z,17.60
2018-07-23T02:52:24.800Z,15.70
2018-07-23T02:53:24.810Z,15.70
2018-07-23T02:54:24.811Z,16.40
2018-07-23T02:55:24.815Z,16.20
2018-07-23T02:56:24.822Z,19.10
2018-07-23T02:57:24.827Z,17.80
2018-07-23T02:58:24.830Z,18.00
2018-07-23T02:59:24.839Z,20.80
2018-07-23T03:00:24.844Z,18.30
2018-07-23T03:01:24.846Z,19.30
2018-07-23T03:02:24.856Z,18.10
2018-07-23T03:03:24.856Z,17.80
2018-07-23T03:04:24.864Z,16.80
2018-07-23T03:05:24.867Z,17.30
2018-07-23T03:06:24.877Z,19.00
2018-07-23T03:07:24.882Z,17.30
2018-07-23T03:08:24.889Z,18.70
2018-07-23T03:09:24.885Z,18.80
2018-07-23T03:10:24.893Z,19.50
2018-07-23T03:11:24.903Z,18.90
2018-07-23T03:12:24.900Z,21.00
2018-07-23T03:13:24.921Z,17.80
2018-07-23T03:14:25.005Z,20.90
2018-07-23T03:15:24.965Z,19.20
2018-07-23T03:16:24.931Z,20.10
2018-07-23T03:17:24.966Z,20.00
2018-07-23T03:18:24.940Z,20.80
2018-07-23T03:19:24.949Z,18.00
2018-07-23T03:20:24.959Z,19.70
2018-07-23T03:21:24.953Z,17.50
2018-07-23T03:22:24.962Z,16.80
2018-07-23T03:23:24.959Z,20.10
2018-07-23T03:24:24.965Z,18.60
2018-07-23T03:25:24.978Z,19.30
2018-07-23T03:26:24.977Z,20.10
2018-07-23T03:27:24.990Z,22.10
2018-07-23T03:28:24.984Z,19.30
2018-07-23T03:29:25.000Z,19.30
2018-07-23T03:30:25.003Z,18.90
2018-07-23T03:31:25.011Z,19.80
2018-07-23T03:32:25.013Z,18.90
2018-07-23T03:33:25.014Z,19.10
2018-07-23T03:34:25.013Z,19.50
2018-07-23T03:35:25.032Z,18.30
2018-07-23T03:36:25.028Z,20.50
2018-07-23T03:37:25.031Z,18.60
2018-07-23T03:38:25.033Z,19.40
2018-07-23T03:39:25.047Z,18.90
2018-07-23T03:40:25.048Z,19.80
2018-07-23T03:41:25.057Z,19.40
2018-07-23T03:42:25.071Z,18.40
2018-07-23T03:43:25.127Z,18.40
2018-07-23T03:44:25.071Z,20.50
2018-07-23T03:45:25.069Z,19.70
2018-07-23T03:46:25.071Z,19.30
2018-07-23T03:47:25.092Z,18.90
2018-07-23T03:48:25.087Z,20.60
2018-07-23T03:49:25.092Z,20.60
2018-07-23T03:50:25.103Z,17.60
2018-07-23T03:51:25.099Z,19.50
2018-07-23T03:52:25.102Z,19.50
2018-07-23T03:53:25.111Z,18.30
2018-07-23T03:54:25.114Z,19.40
2018-07-23T03:55:25.123Z,20.90
2018-07-23T03:56:25.127Z,18.90
2018-07-23T03:57:25.128Z,20.00
2018-07-23T03:58:25.135Z,19.50
2018-07-23T03:59:25.140Z,19.10
2018-07-23T04:00:25.143Z,18.40
2018-07-23T04:01:25.155Z,19.90
2018-07-23T04:02:25.163Z,20.70
2018-07-23T04:03:25.209Z,18.40
2018-07-23T04:04:25.195Z,18.30
2018-07-23T04:05:25.175Z,18.40
2018-07-23T04:06:25.175Z,19.40
2018-07-23T04:07:25.180Z,19.00
2018-07-23T04:08:25.183Z,19.40
2018-07-23T04:09:25.195Z,19.90
2018-07-23T04:10:25.189Z,18.80
2018-07-23T04:11:25.202Z,20.10
2018-07-23T04:12:25.199Z,19.20
2018-07-23T04:13:25.218Z,18.20
2018-07-23T04:14:25.237Z,19.00
2018-07-23T04:15:25.214Z,21.30
2018-07-23T04:16:25.218Z,19.60
2018-07-23T04:17:25.262Z,18.50
2018-07-23T04:18:25.234Z,18.10
2018-07-23T04:19:25.244Z,19.80
2018-07-23T04:20:25.247Z,18.50
2018-07-23T04:21:25.249Z,20.80
2018-07-23T04:22:25.261Z,18.70
2018-07-23T04:23:25.257Z,17.40
2018-07-23T04:24:25.259Z,18.70
2018-07-23T04:25:25.269Z,17.70
2018-07-23T04:26:25.272Z,17.00
2018-07-23T04:27:25.281Z,17.10
2018-07-23T04:28:25.277Z,15.20
2018-07-23T04:29:25.292Z,15.90
2018-07-23T04:30:25.299Z,16.50
2018-07-23T04:31:25.304Z,19.30
2018-07-23T04:32:25.307Z,17.70
2018-07-23T04:33:25.323Z,17.60
2018-07-23T04:34:25.330Z,17.10
2018-07-23T04:35:25.322Z,17.30
2018-07-23T04:36:25.345Z,18.20
2018-07-23T04:37:25.342Z,17.60
2018-07-23T04:38:25.352Z,18.70
2018-07-23T04:39:25.354Z,17.50
2018-07-23T04:40:25.350Z,19.50
2018-07-23T04:41:25.368Z,16.70
2018-07-23T04:42:25.378Z,18.00
2018-07-23T04:43:25.374Z,18.00
2018-07-23T04:44:25.383Z,17.10
2018-07-23T04:45:25.382Z,15.80
2018-07-23T04:46:25.390Z,16.30
2018-07-23T04:47:26.159Z,16.50
2018-07-23T04:48:25.403Z,18.10
2018-07-23T04:49:25.481Z,18.70
2018-07-23T04:50:25.409Z,16.40
2018-07-23T04:51:25.428Z,17.00
2018-07-23T04:52:25.423Z,21.90
2018-07-23T04:53:25.435Z,18.00
2018-07-23T04:54:25.434Z,17.60
2018-07-23T04:55:25.441Z,17.10
2018-07-23T04:56:25.455Z,18.10
2018-07-23T04:57:25.450Z,20.60
2018-07-23T04:58:25.456Z,16.00
2018-07-23T04:59:25.470Z,18.50
2018-07-23T05:00:25.465Z,18.00
2018-07-23T05:01:25.480Z,18.60
2018-07-23T05:02:25.483Z,17.60
2018-07-23T05:03:25.484Z,15.80
2018-07-23T05:04:25.489Z,19.40
2018-07-23T05:05:25.500Z,19.10
2018-07-23T05:06:25.505Z,18.00
2018-07-23T05:07:25.513Z,18.50
2018-07-23T05:08:25.533Z,17.40
2018-07-23T05:09:25.543Z,18.80
2018-07-23T05:10:25.535Z,17.40
2018-07-23T05:11:25.525Z,16.80
2018-07-23T05:12:25.533Z,18.30
2018-07-23T05:13:25.542Z,17.60
2018-07-23T05:14:25.557Z,19.60
2018-07-23T05:15:25.553Z,19.90
2018-07-23T05:16:25.558Z,19.00
2018-07-23T05:17:25.562Z,18.60
2018-07-23T05:18:25.570Z,21.80
2018-07-23T05:19:25.572Z,18.10
2018-07-23T05:20:25.578Z,18.60
2018-07-23T05:21:25.588Z,17.50
2018-07-23T05:22:25.599Z,18.30
2018-07-23T05:23:25.601Z,20.40
2018-07-23T05:24:25.607Z,16.50
2018-07-23T05:25:25.620Z,18.30
2018-07-23T05:26:25.615Z,17.70
2018-07-23T05:27:25.623Z,17.90
2018-07-23T05:28:25.623Z,19.70
2018-07-23T05:29:25.637Z,18.30
2018-07-23T05:30:25.639Z,19.20
2018-07-23T05:31:25.647Z,16.70
2018-07-23T05:32:25.651Z,16.00
2018-07-23T05:33:25.659Z,15.80
2018-07-23T05:34:25.680Z,18.80
2018-07-23T05:35:25.663Z,17.50
2018-07-23T05:36:25.669Z,18.40
2018-07-23T05:37:25.685Z,19.00
2018-07-23T05:38:25.721Z,16.20
2018-07-23T05:39:25.699Z,15.30
2018-07-23T05:40:25.700Z,15.50
2018-07-23T05:41:25.720Z,17.40
2018-07-23T05:42:25.725Z,14.20
2018-07-23T05:43:25.729Z,14.00
2018-07-23T05:44:25.733Z,14.40
2018-07-23T05:45:26.678Z,14.20
2018-07-23T05:46:25.757Z,14.60
2018-07-23T05:47:25.763Z,17.60
2018-07-23T05:48:25.773Z,13.70
2018-07-23T05:49:25.783Z,13.50
2018-07-23T05:50:25.792Z,18.50
2018-07-23T05:51:25.816Z,13.60
2018-07-23T05:52:25.821Z,14.00
2018-07-23T05:53:25.815Z,12.40
2018-07-23T05:54:25.842Z,13.10
2018-07-23T05:55:25.850Z,12.90
2018-07-23T05:56:25.858Z,12.50
2018-07-23T05:57:25.867Z,13.50
2018-07-23T05:58:25.881Z,12.10
2018-07-23T05:59:25.890Z,13.80
2018-07-23T06:00:25.902Z,15.20
2018-07-23T06:01:25.971Z,13.10
2018-07-23T06:02:25.932Z,11.10
2018-07-23T06:03:25.945Z,13.40
2018-07-23T06:04:25.951Z,12.10
2018-07-23T06:05:25.969Z,11.10
2018-07-23T06:06:26.017Z,19.10
2018-07-23T06:07:25.994Z,11.70
2018-07-23T06:08:26.009Z,14.70
2018-07-23T06:09:26.024Z,12.40
2018-07-23T06:10:26.026Z,13.00
2018-07-23T06:11:26.049Z,15.30
2018-07-23T06:12:26.063Z,10.70
2018-07-23T06:13:26.124Z,11.20
2018-07-23T06:14:26.096Z,14.50
2018-07-23T06:15:26.111Z,11.60
2018-07-23T06:16:26.117Z,12.50
2018-07-23T06:17:26.162Z,13.40
2018-07-23T06:18:26.140Z,13.60
2018-07-23T06:19:26.155Z,10.10
2018-07-23T06:20:26.175Z,11.20
2018-07-23T06:21:26.194Z,13.30
2018-07-23T06:22:26.199Z,12.30
2018-07-23T06:23:26.229Z,9.70
2018-07-23T06:24:26.239Z,13.10
2018-07-23T06:25:26.259Z,11.20
2018-07-23T06:26:26.264Z,9.90
2018-07-23T06:27:26.288Z,9.90
2018-07-23T06:28:26.292Z,9.40
2018-07-23T06:29:26.317Z,11.40
2018-07-23T06:30:26.387Z,10.60
2018-07-23T06:31:26.342Z,9.90
2018-07-23T06:32:26.373Z,10.40
2018-07-23T06:33:26.450Z,9.20
2018-07-23T06:34:26.389Z,9.10
2018-07-23T06:35:26.417Z,10.20
2018-07-23T06:36:26.432Z,9.60
2018-07-23T06:37:26.472Z,10.10
2018-07-23T06:38:26.464Z,8.30
2018-07-23T06:39:26.482Z,8.90
2018-07-23T06:40:26.488Z,9.10
2018-07-23T06:41:26.515Z,8.90
2018-07-23T06:42:26.524Z,8.20
2018-07-23T06:43:26.597Z,8.70
2018-07-23T06:44:26.561Z,10.20
2018-07-23T06:45:26.582Z,8.10
2018-07-23T06:46:26.626Z,9.30
2018-07-23T06:47:26.618Z,9.30
2018-07-23T06:48:26.641Z,7.60
2018-07-23T06:49:26.653Z,8.80
2018-07-23T06:50:26.674Z,11.20
2018-07-23T06:51:26.685Z,7.60
2018-07-23T06:52:26.784Z,8.60
2018-07-23T06:53:26.729Z,8.20
2018-07-23T06:54:26.748Z,8.20
2018-07-23T06:55:26.762Z,7.90
2018-07-23T06:56:26.790Z,7.50
2018-07-23T06:57:26.803Z,8.80
2018-07-23T06:58:26.825Z,8.80
2018-07-23T06:59:26.836Z,8.60
2018-07-23T07:00:26.898Z,9.90
2018-07-23T07:01:26.875Z,8.90
2018-07-23T07:02:26.903Z,8.10
2018-07-23T07:03:26.913Z,7.80
2018-07-23T07:04:26.934Z,9.70
2018-07-23T07:05:26.956Z,8.60
2018-07-23T07:06:26.995Z,6.80
2018-07-23T07:07:26.992Z,7.50
2018-07-23T07:08:27.025Z,7.70
2018-07-23T07:09:27.041Z,9.60
2018-07-23T07:10:27.056Z,8.10
2018-07-23T07:11:27.099Z,10.30
2018-07-23T07:12:27.119Z,7.80
2018-07-23T07:13:27.126Z,9.30
2018-07-23T07:14:27.135Z,8.00
2018-07-23T07:15:27.150Z,7.50
2018-07-23T07:16:27.182Z,7.70
2018-07-23T07:17:27.186Z,7.50
2018-07-23T07:18:27.214Z,7.80
2018-07-23T07:19:27.234Z,7.40
2018-07-23T07:20:27.273Z,9.80
2018-07-23T07:21:27.273Z,7.60
2018-07-23T07:22:27.298Z,7.20
2018-07-23T07:23:27.308Z,7.80
2018-07-23T07:24:27.333Z,7.40
2018-07-23T07:25:27.384Z,7.30
2018-07-23T07:26:27.371Z,7.90
2018-07-23T07:27:27.399Z,7.70
2018-07-23T07:28:27.422Z,8.30
2018-07-23T07:29:27.463Z,7.30
2018-07-23T07:30:27.458Z,7.30
2018-07-23T07:31:27.481Z,7.90
2018-07-23T07:32:27.510Z,7.80
2018-07-23T07:33:27.523Z,7.40
2018-07-23T07:34:27.541Z,7.50
2018-07-23T07:35:27.561Z,8.00
2018-07-23T07:36:27.584Z,7.30
2018-07-23T07:37:27.603Z,7.00
2018-07-23T07:38:27.621Z,6.90
2018-07-23T07:39:27.686Z,7.00
2018-07-23T07:40:27.681Z,9.40
2018-07-23T07:41:27.692Z,7.30
2018-07-23T07:42:27.712Z,6.10
2018-07-23T07:43:27.729Z,7.30
2018-07-23T07:44:27.748Z,7.60
2018-07-23T07:45:27.789Z,7.90
2018-07-23T07:46:27.874Z,7.40
2018-07-23T07:47:27.824Z,6.40
2018-07-23T07:48:27.842Z,7.30
2018-07-23T07:49:27.856Z,6.30
2018-07-23T07:50:27.886Z,6.80
2018-07-23T07:51:27.900Z,6.90
2018-07-23T07:52:27.924Z,8.50
2018-07-23T07:53:27.949Z,7.60
2018-07-23T07:54:27.969Z,7.60
2018-07-23T07:55:28.729Z,7.40
2018-07-23T07:56:28.009Z,14.60
2018-07-23T07:57:28.033Z,7.10
2018-07-23T07:58:28.064Z,6.90
2018-07-23T07:59:28.083Z,7.00
2018-07-23T08:00:28.099Z,9.60
2018-07-23T08:01:28.127Z,8.00
2018-07-23T08:02:28.148Z,10.00
2018-07-23T08:03:28.169Z,8.30
2018-07-23T08:04:28.193Z,8.30
2018-07-23T08:05:28.213Z,7.50
2018-07-23T08:06:28.240Z,8.20
2018-07-23T08:07:28.264Z,5.30
2018-07-23T08:08:28.279Z,6.00
2018-07-23T08:09:28.306Z,7.00
2018-07-23T08:10:28.319Z,5.90
2018-07-23T08:11:28.349Z,6.40
2018-07-23T08:12:28.425Z,6.50
2018-07-23T08:13:28.390Z,7.20
2018-07-23T08:14:28.419Z,9.00
2018-07-23T08:15:28.432Z,6.10
2018-07-23T08:16:28.458Z,5.10
2018-07-23T08:17:28.488Z,8.70
2018-07-23T08:18:28.511Z,6.40
2018-07-23T08:19:28.529Z,5.50
2018-07-23T08:20:28.558Z,5.80
2018-07-23T08:21:28.578Z,6.10
2018-07-23T08:22:28.599Z,5.90
2018-07-23T08:23:28.628Z,6.40
2018-07-23T08:24:28.648Z,4.90
2018-07-23T08:25:28.666Z,5.90
2018-07-23T08:26:28.691Z,5.10
2018-07-23T08:27:28.718Z,5.20
2018-07-23T08:28:28.813Z,5.50
2018-07-23T08:29:28.759Z,4.90
2018-07-23T08:30:28.787Z,4.50
2018-07-23T08:31:28.805Z,5.20
2018-07-23T08:32:28.844Z,4.40
2018-07-23T08:33:28.874Z,4.10
2018-07-23T08:34:28.878Z,4.70
2018-07-23T08:35:28.900Z,5.10
2018-07-23T08:36:28.923Z,4.40
2018-07-23T08:37:28.948Z,6.10
2018-07-23T08:38:28.980Z,3.90
2018-07-23T08:39:28.990Z,4.40
2018-07-23T08:40:29.017Z,5.80
2018-07-23T08:41:29.043Z,3.90
2018-07-23T08:42:29.069Z,7.30
2018-07-23T08:43:29.094Z,4.60
2018-07-23T08:44:29.112Z,8.70
2018-07-23T08:45:29.129Z,6.30
2018-07-23T08:46:29.166Z,4.50
2018-07-23T08:47:29.175Z,5.80
2018-07-23T08:48:29.228Z,5.00
2018-07-23T08:49:29.237Z,6.00
2018-07-23T08:50:29.246Z,6.90
2018-07-23T08:51:29.282Z,6.30
2018-07-23T08:52:29.304Z,4.50
2018-07-23T08:53:29.320Z,4.80
2018-07-23T08:54:29.349Z,4.60
2018-07-23T08:55:29.375Z,3.80
2018-07-23T08:56:29.399Z,3.40
2018-07-23T08:57:29.491Z,5.60
2018-07-23T08:58:29.467Z,3.70
2018-07-23T08:59:29.462Z,3.50
2018-07-23T09:00:29.490Z,4.30
2018-07-23T09:01:29.516Z,4.20
2018-07-23T09:02:29.613Z,3.50
2018-07-23T09:03:29.561Z,3.80
2018-07-23T09:04:29.580Z,4.00
2018-07-23T09:05:29.606Z,4.20
2018-07-23T09:06:29.624Z,5.60
2018-07-23T09:07:29.652Z,6.20
2018-07-23T09:08:29.723Z,4.20
2018-07-23T09:09:29.715Z,4.20
2018-07-23T09:10:29.723Z,4.00
2018-07-23T09:11:29.743Z,3.70
2018-07-23T09:12:29.764Z,7.20
2018-07-23T09:13:29.797Z,4.90
2018-07-23T09:14:29.818Z,6.70
2018-07-23T09:15:29.843Z,4.10
2018-07-23T09:16:29.862Z,3.30
2018-07-23T09:17:29.884Z,3.30
2018-07-23T09:18:29.908Z,4.90
2018-07-23T09:19:29.941Z,5.30
2018-07-23T09:20:29.964Z,3.30
2018-07-23T09:21:29.982Z,3.00
2018-07-23T09:22:30.011Z,3.90
2018-07-23T09:23:30.028Z,3.00
2018-07-23T09:24:30.053Z,3.20
2018-07-23T09:25:30.081Z,3.00
2018-07-23T09:26:30.101Z,3.00
2018-07-23T09:27:30.752Z,3.10
2018-07-23T09:28:30.142Z,3.40
2018-07-23T09:29:30.171Z,4.10
2018-07-23T09:30:30.203Z,2.80
2018-07-23T09:31:30.220Z,2.90
2018-07-23T09:32:30.238Z,2.60
2018-07-23T09:33:30.273Z,2.50
2018-07-23T09:34:30.292Z,3.20
2018-07-23T09:35:30.319Z,5.60
2018-07-23T09:36:30.342Z,3.10
2018-07-23T09:37:30.361Z,3.70
2018-07-23T09:38:30.449Z,3.10
2018-07-23T09:39:30.567Z,3.50
2018-07-23T09:40:30.435Z,2.90
2018-07-23T09:41:30.462Z,6.30
2018-07-23T09:42:30.505Z,2.90
2018-07-23T09:43:30.515Z,6.20
2018-07-23T09:44:30.532Z,3.70
2018-07-23T09:45:30.557Z,3.50
2018-07-23T09:46:30.578Z,4.50
2018-07-23T09:47:30.600Z,2.40
2018-07-23T09:48:30.618Z,2.50
2018-07-23T09:49:30.652Z,3.20
2018-07-23T09:50:30.683Z,3.40
2018-07-23T09:51:30.695Z,4.80
2018-07-23T09:52:30.714Z,3.40
2018-07-23T09:53:30.760Z,3.20
2018-07-23T09:54:30.790Z,4.00
2018-07-23T09:55:30.785Z,4.50
2018-07-23T09:56:30.830Z,3.40
2018-07-23T09:57:30.832Z,2.80
2018-07-23T09:58:30.851Z,6.10
2018-07-23T09:59:30.903Z,2.50
2018-07-23T10:00:30.930Z,3.30
2018-07-23T10:01:30.938Z,3.90
2018-07-23T10:02:30.955Z,2.50
2018-07-23T10:03:31.150Z,2.40
2018-07-23T10:04:31.001Z,4.10
2018-07-23T10:05:31.061Z,2.70
2018-07-23T10:06:31.071Z,2.60
2018-07-23T10:07:31.129Z,3.10
2018-07-23T10:08:31.090Z,3.50
2018-07-23T10:09:31.127Z,2.80
2018-07-23T10:10:31.136Z,2.40
2018-07-23T10:11:31.214Z,3.30
2018-07-23T10:12:31.192Z,6.80
2018-07-23T10:13:31.245Z,4.50
2018-07-23T10:14:31.240Z,2.40
2018-07-23T10:15:31.263Z,6.20
2018-07-23T10:16:31.283Z,2.80
2018-07-23T10:17:31.318Z,3.30
2018-07-23T10:18:31.353Z,2.60
2018-07-23T10:19:31.371Z,2.70
2018-07-23T10:20:31.377Z,4.00
2018-07-23T10:21:31.409Z,3.20
2018-07-23T10:22:31.431Z,2.30
2018-07-23T10:23:31.443Z,2.30
2018-07-23T10:24:31.470Z,2.70
2018-07-23T10:25:31.513Z,2.00
2018-07-23T10:26:31.524Z,2.60
2018-07-23T10:27:31.534Z,2.40
2018-07-23T10:28:31.562Z,2.30
2018-07-23T10:29:31.619Z,2.20
2018-07-23T10:30:31.617Z,3.70
2018-07-23T10:31:31.631Z,2.40
2018-07-23T10:32:32.275Z,4.20
2018-07-23T10:33:31.677Z,3.00
2018-07-23T10:34:31.707Z,2.90
2018-07-23T10:35:31.731Z,2.50
2018-07-23T10:36:31.784Z,2.30
2018-07-23T10:37:31.787Z,2.10
2018-07-23T10:38:31.808Z,2.10
2018-07-23T10:39:31.818Z,3.00
2018-07-23T10:40:31.862Z,3.20
2018-07-23T10:41:31.868Z,2.40
2018-07-23T10:42:31.887Z,3.90
2018-07-23T10:43:31.941Z,2.40
2018-07-23T10:44:31.945Z,3.50
2018-07-23T10:45:31.955Z,2.80
2018-07-23T10:46:31.978Z,2.80
2018-07-23T10:47:32.000Z,2.80
2018-07-23T10:48:32.029Z,2.50
2018-07-23T10:49:32.079Z,2.60
2018-07-23T10:50:32.088Z,3.40
2018-07-23T10:51:32.097Z,17.70
2018-07-23T10:52:32.127Z,4.00
2018-07-23T10:53:32.144Z,4.10
2018-07-23T10:54:32.156Z,2.90
2018-07-23T10:55:32.186Z,3.10
2018-07-23T10:56:32.205Z,3.20
2018-07-23T10:57:32.249Z,2.70
2018-07-23T10:58:32.267Z,4.00
2018-07-23T10:59:32.272Z,3.40
2018-07-23T11:00:32.298Z,2.30
2018-07-23T11:01:32.315Z,3.20
2018-07-23T11:02:32.375Z,3.40
2018-07-23T11:03:32.379Z,2.90
2018-07-23T11:04:32.396Z,2.60
2018-07-23T11:05:32.406Z,2.70
2018-07-23T11:06:32.434Z,2.60
2018-07-23T11:07:32.453Z,3.40
2018-07-23T11:08:32.475Z,2.50
2018-07-23T11:09:32.529Z,4.50
2018-07-23T11:10:32.518Z,2.60
2018-07-23T11:11:32.539Z,2.60
2018-07-23T11:12:32.559Z,2.80
2018-07-23T11:13:32.585Z,4.10
2018-07-23T11:14:32.603Z,2.60
2018-07-23T11:15:32.622Z,4.00
2018-07-23T11:16:32.659Z,2.60
2018-07-23T11:17:32.672Z,2.30
2018-07-23T11:18:32.690Z,2.40
2018-07-23T11:19:32.710Z,3.20
2018-07-23T11:20:32.736Z,2.10
2018-07-23T11:21:32.751Z,3.90
2018-07-23T11:22:32.775Z,2.70
2018-07-23T11:23:32.795Z,4.10
2018-07-23T11:24:32.817Z,3.40
2018-07-23T11:25:40.503Z,2.20
2018-07-23T11:26:32.866Z,3.10
2018-07-23T11:27:32.878Z,3.50
2018-07-23T11:28:32.900Z,3.50
2018-07-23T11:29:32.968Z,3.00
2018-07-23T11:30:32.950Z,2.10
2018-07-23T11:31:32.965Z,2.10
2018-07-23T11:32:32.988Z,3.00
2018-07-23T11:33:33.007Z,2.30
2018-07-23T11:34:33.019Z,3.40
2018-07-23T11:35:33.056Z,3.30
2018-07-23T11:36:33.110Z,4.20
2018-07-23T11:37:33.090Z,2.90
2018-07-23T11:38:33.103Z,3.50
2018-07-23T11:39:33.180Z,2.10
2018-07-23T11:40:33.159Z,2.00
2018-07-23T11:41:33.228Z,2.70
2018-07-23T11:42:33.194Z,2.80
2018-07-23T11:43:33.222Z,3.30
2018-07-23T11:44:33.223Z,2.70
2018-07-23T11:45:33.254Z,2.40
2018-07-23T11:46:33.272Z,3.60
2018-07-23T11:47:33.291Z,3.60
2018-07-23T11:48:33.314Z,2.90
2018-07-23T11:49:33.333Z,6.60
2018-07-23T11:50:33.352Z,2.30
2018-07-23T11:51:33.370Z,2.80
2018-07-23T11:52:33.393Z,4.20
2018-07-23T11:53:33.549Z,2.80
2018-07-23T11:54:33.428Z,2.40
2018-07-23T11:55:33.461Z,2.70
2018-07-23T11:56:33.485Z,4.00
2018-07-23T11:57:33.485Z,2.20
2018-07-23T11:58:33.504Z,2.60
2018-07-23T11:59:33.530Z,5.10
2018-07-23T12:00:33.539Z,3.10
2018-07-23T12:01:33.561Z,3.00
2018-07-23T12:02:33.610Z,4.00
2018-07-23T12:03:33.603Z,4.50
2018-07-23T12:04:33.708Z,2.80
2018-07-23T12:05:33.635Z,5.20
2018-07-23T12:06:33.652Z,2.40
2018-07-23T12:07:33.668Z,3.20
2018-07-23T12:08:33.692Z,3.10
2018-07-23T12:09:33.706Z,3.90
2018-07-23T12:10:33.719Z,2.40
2018-07-23T12:11:33.747Z,3.00
2018-07-23T12:12:33.762Z,2.40
2018-07-23T12:13:33.783Z,4.00
2018-07-23T12:14:33.796Z,5.40
2018-07-23T12:15:33.807Z,2.40
2018-07-23T12:16:33.819Z,6.80
2018-07-23T12:17:33.869Z,8.20
2018-07-23T12:18:33.859Z,2.60
2018-07-23T12:19:33.875Z,3.60
2018-07-23T12:20:33.890Z,2.50
2018-07-23T12:21:33.897Z,3.30
2018-07-23T12:22:33.926Z,2.40
2018-07-23T12:23:33.935Z,2.90
2018-07-23T12:24:33.956Z,2.70
2018-07-23T12:25:33.968Z,3.90
2018-07-23T12:26:34.004Z,4.90
2018-07-23T12:27:33.990Z,2.60
2018-07-23T12:28:34.008Z,3.10
2018-07-23T12:29:34.030Z,2.30
2018-07-23T12:30:34.042Z,2.50
2018-07-23T12:31:34.060Z,2.60
2018-07-23T12:32:34.129Z,3.00
2018-07-23T12:33:34.806Z,2.90
2018-07-23T12:34:34.102Z,4.90
2018-07-23T12:35:34.124Z,3.00
2018-07-23T12:36:34.128Z,3.40
2018-07-23T12:37:34.178Z,3.50
2018-07-23T12:38:34.160Z,2.70
2018-07-23T12:39:34.241Z,2.40
2018-07-23T12:40:34.189Z,3.90
2018-07-23T12:41:34.242Z,2.40
2018-07-23T12:42:34.214Z,3.40
2018-07-23T12:43:34.261Z,3.20
2018-07-23T12:44:34.254Z,2.30
2018-07-23T12:45:34.254Z,2.90
2018-07-23T12:46:34.277Z,4.50
2018-07-23T12:47:34.283Z,3.00
2018-07-23T12:48:34.309Z,4.40
2018-07-23T12:49:34.316Z,3.10
2018-07-23T12:50:34.327Z,2.20
2018-07-23T12:51:34.361Z,2.50
2018-07-23T12:52:34.380Z,3.90
2018-07-23T12:53:34.374Z,2.60
2018-07-23T12:54:34.383Z,2.30
2018-07-23T12:55:34.399Z,3.20
2018-07-23T12:56:34.420Z,3.00
2018-07-23T12:57:34.421Z,3.00
2018-07-23T12:58:34.453Z,2.60
2018-07-23T12:59:34.471Z,3.40
2018-07-23T13:00:34.525Z,3.50
2018-07-23T13:01:34.489Z,3.80
2018-07-23T13:02:34.497Z,2.80
2018-07-23T13:03:34.509Z,3.80
2018-07-23T13:04:34.525Z,3.90
2018-07-23T13:05:34.536Z,4.40
2018-07-23T13:06:34.571Z,4.30
2018-07-23T13:07:34.571Z,2.30